Time;durP1;ratioP1;P1;durP2;ratioP2;P2;SDS_P1;SDS_P2;PMS_P1;PMS_P2;Temp;Humidity;BMP_temperature;BMP_pressure;BME280_temperature;BME280_humidity;BME280_pressure;Samples;Min_cycle;Max_cycle;Signal;HPM_P1;HPM_P2
2023/08/07 00:00:03;;;;;;;5.90;3.67;;;;;;;;;;5013368;28;20028;-77
2023/08/07 00:02:28;;;;;;;12.80;4.25;;;;;;;;;;5013247;28;20502;-77
2023/08/07 00:04:54;;;;;;;6.60;4.18;;;;;;;;;;5013514;28;20034;-77
2023/08/07 00:07:19;;;;;;;9.15;4.28;;;;;;;;;;5029544;28;20033;-77
2023/08/07 00:09:44;;;;;;;8.75;4.40;;;;;;;;;;5029605;28;20473;-76
2023/08/07 00:12:10;;;;;;;6.50;3.85;;;;;;;;;;5014411;28;20025;-77
2023/08/07 00:14:35;;;;;;;6.50;4.00;;;;;;;;;;5014196;28;20113;-77
2023/08/07 00:17:00;;;;;;;6.72;3.63;;;;;;;;;;5013027;28;20116;-77
2023/08/07 00:19:29;;;;;;;5.10;3.65;;;;;;;;;;5035556;23;20488;-77
2023/08/07 00:21:54;;;;;;;7.88;3.65;;;;;;;;;;5016198;28;20026;-77
2023/08/07 00:24:19;;;;;;;7.38;3.78;;;;;;;;;;5032219;28;20530;-77
2023/08/07 00:26:44;;;;;;;6.43;3.92;;;;;;;;;;5033990;28;20041;-77
2023/08/07 00:29:10;;;;;;;9.63;3.92;;;;;;;;;;5032544;28;20025;-77
2023/08/07 00:31:35;;;;;;;8.35;3.83;;;;;;;;;;5033210;28;20021;-77
2023/08/07 00:34:04;;;;;;;7.47;4.25;;;;;;;;;;5032148;28;20022;-76
2023/08/07 00:36:29;;;;;;;6.65;4.05;;;;;;;;;;5033064;28;20108;-77
2023/08/07 00:38:54;;;;;;;9.73;5.00;;;;;;;;;;5032653;28;20046;-77
2023/08/07 00:41:20;;;;;;;7.18;3.78;;;;;;;;;;5033913;28;20394;-77
2023/08/07 00:43:45;;;;;;;11.57;4.45;;;;;;;;;;5033730;28;20085;-77
2023/08/07 00:46:11;;;;;;;7.20;4.30;;;;;;;;;;5032230;28;20514;-76
2023/08/07 00:48:36;;;;;;;5.35;3.80;;;;;;;;;;5032452;28;20029;-76
2023/08/07 00:51:02;;;;;;;6.32;3.95;;;;;;;;;;5026877;28;20037;-76
2023/08/07 00:53:27;;;;;;;12.13;4.60;;;;;;;;;;5015285;28;20037;-77
2023/08/07 00:55:52;;;;;;;9.93;3.83;;;;;;;;;;5033422;28;20466;-77
2023/08/07 00:58:18;;;;;;;9.63;4.75;;;;;;;;;;5031814;28;20535;-77
2023/08/07 01:00:43;;;;;;;9.98;4.43;;;;;;;;;;5033914;28;20033;-77
2023/08/07 01:03:11;;;;;;;5.82;3.75;;;;;;;;;;5032626;28;20026;-77
2023/08/07 01:05:39;;;;;;;7.82;5.75;;;;;;;;;;5032413;28;20033;-77
2023/08/07 01:08:04;;;;;;;6.78;5.22;;;;;;;;;;5032439;28;20108;-77
2023/08/07 01:10:36;;;;;;;8.05;4.78;;;;;;;;;;5031827;28;20104;-77
2023/08/07 01:13:19;;;;;;;9.13;4.40;;;;;;;;;;5032346;28;20072;-77
2023/08/07 01:15:44;;;;;;;8.48;3.97;;;;;;;;;;5032913;28;20100;-77
2023/08/07 01:18:10;;;;;;;6.47;4.43;;;;;;;;;;5019372;28;20061;-77
2023/08/07 01:20:36;;;;;;;6.97;4.07;;;;;;;;;;5018861;28;20403;-77
2023/08/07 01:23:01;;;;;;;7.93;4.00;;;;;;;;;;5035870;28;20025;-78
2023/08/07 01:25:28;;;;;;;7.55;3.83;;;;;;;;;;5036979;28;20442;-77
2023/08/07 01:28:02;;;;;;;9.15;4.63;;;;;;;;;;5035775;28;20026;-76
2023/08/07 01:30:37;;;;;;;12.30;4.15;;;;;;;;;;5035713;28;20395;-77
2023/08/07 01:33:43;;;;;;;8.68;3.58;;;;;;;;;;5018948;28;20021;-77
2023/08/07 01:36:08;;;;;;;9.93;4.53;;;;;;;;;;5015151;28;20033;-77
2023/08/07 01:38:34;;;;;;;10.43;4.47;;;;;;;;;;5009343;28;20037;-77
2023/08/07 01:41:00;;;;;;;9.50;4.15;;;;;;;;;;5015788;28;20025;-77
2023/08/07 01:43:26;;;;;;;7.05;3.25;;;;;;;;;;5032095;28;20361;-77
2023/08/07 01:45:52;;;;;;;9.23;3.55;;;;;;;;;;5015441;28;20033;-77
2023/08/07 01:48:17;;;;;;;8.23;3.80;;;;;;;;;;5016871;28;20033;-77
2023/08/07 01:50:42;;;;;;;9.60;3.60;;;;;;;;;;5016882;28;20037;-76
2023/08/07 01:53:08;;;;;;;18.10;4.60;;;;;;;;;;5032282;28;20377;-76
2023/08/07 01:55:33;;;;;;;6.97;3.05;;;;;;;;;;5016678;28;20069;-77
2023/08/07 01:57:58;;;;;;;11.57;4.13;;;;;;;;;;5052493;28;20029;-77
2023/08/07 02:00:23;;;;;;;7.38;3.17;;;;;;;;;;5034338;28;20022;-77
2023/08/07 02:02:49;;;;;;;7.55;3.55;;;;;;;;;;5035002;28;20148;-77
2023/08/07 02:05:15;;;;;;;9.70;3.22;;;;;;;;;;5035123;28;20392;-77
2023/08/07 02:07:40;;;;;;;12.52;4.63;;;;;;;;;;5032976;28;20017;-77
2023/08/07 02:10:06;;;;;;;7.53;3.00;;;;;;;;;;5006392;28;20552;-76
2023/08/07 02:12:32;;;;;;;6.60;3.03;;;;;;;;;;5015783;28;20469;-77
2023/08/07 02:15:00;;;;;;;15.82;3.78;;;;;;;;;;5017557;28;20036;-77
2023/08/07 02:17:27;;;;;;;10.45;3.38;;;;;;;;;;5031548;28;20041;-77
2023/08/07 02:19:53;;;;;;;11.48;3.50;;;;;;;;;;5036673;23;20041;-77
2023/08/07 02:22:24;;;;;;;8.02;3.97;;;;;;;;;;5031443;28;20037;-77
2023/08/07 02:24:49;;;;;;;;;;;;;;;;;;5015202;28;20022;-77
2023/08/07 02:27:14;;;;;;;11.87;3.27;;;;;;;;;;5015666;28;19924;-77
2023/08/07 02:29:40;;;;;;;7.10;3.42;;;;;;;;;;5015024;28;20041;-77
2023/08/07 02:32:05;;;;;;;7.50;3.10;;;;;;;;;;5014779;28;20503;-77
2023/08/07 02:34:31;;;;;;;7.28;3.85;;;;;;;;;;5014459;28;20026;-77
2023/08/07 02:36:56;;;;;;;7.28;2.83;;;;;;;;;;5014727;28;20029;-77
2023/08/07 02:39:22;;;;;;;7.13;3.38;;;;;;;;;;4998681;28;20017;-76
2023/08/07 02:41:47;;;;;;;9.48;3.00;;;;;;;;;;5019043;28;20040;-79
2023/08/07 02:44:13;;;;;;;5.85;3.50;;;;;;;;;;5034391;28;20040;-77
2023/08/07 02:46:38;;;;;;;6.38;3.35;;;;;;;;;;5034178;28;20025;-77
2023/08/07 02:49:04;;;;;;;8.15;4.07;;;;;;;;;;5034408;28;20035;-77
2023/08/07 02:51:29;;;;;;;7.72;4.25;;;;;;;;;;5034250;28;20514;-77
2023/08/07 02:53:55;;;;;;;13.63;4.13;;;;;;;;;;5033852;28;20026;-77
2023/08/07 02:56:20;;;;;;;10.02;4.22;;;;;;;;;;5014015;28;20538;-77
2023/08/07 02:58:45;;;;;;;10.38;3.75;;;;;;;;;;5015134;28;20026;-77
2023/08/07 03:01:11;;;;;;;10.15;3.40;;;;;;;;;;5014069;28;20032;-77
2023/08/07 03:03:37;;;;;;;15.25;3.55;;;;;;;;;;5014156;28;20535;-77
2023/08/07 03:06:03;;;;;;;13.68;4.10;;;;;;;;;;5014152;28;20030;-77
2023/08/07 03:08:28;;;;;;;9.45;3.33;;;;;;;;;;4996195;28;20117;-77
2023/08/07 03:10:57;;;;;;;13.68;4.50;;;;;;;;;;5017776;28;20088;-77
2023/08/07 03:13:24;;;;;;;10.82;3.15;;;;;;;;;;5013790;28;20014;-77
2023/08/07 03:15:50;;;;;;;9.90;3.78;;;;;;;;;;5027156;28;20025;-77
2023/08/07 03:18:16;;;;;;;13.90;4.32;;;;;;;;;;5033394;28;20029;-77
2023/08/07 03:20:43;;;;;;;14.45;4.88;;;;;;;;;;5033613;28;20078;-77
2023/08/07 03:23:08;;;;;;;12.20;3.97;;;;;;;;;;5034843;28;20049;-77
2023/08/07 03:25:33;;;;;;;8.55;3.95;;;;;;;;;;5032762;28;20167;-79
2023/08/07 03:27:58;;;;;;;11.43;3.83;;;;;;;;;;5034825;28;20080;-77
2023/08/07 03:30:24;;;;;;;13.32;3.70;;;;;;;;;;5016557;28;20056;-77
2023/08/07 03:32:49;;;;;;;8.60;3.67;;;;;;;;;;5016894;28;20480;-76
2023/08/07 03:35:15;;;;;;;10.40;4.03;;;;;;;;;;5033216;28;20510;-77
2023/08/07 03:37:40;;;;;;;9.95;3.05;;;;;;;;;;5033100;28;20397;-79
2023/08/07 03:40:06;;;;;;;15.90;5.50;;;;;;;;;;5015687;28;20028;-77
2023/08/07 03:42:31;;;;;;;8.02;3.80;;;;;;;;;;5031302;28;20030;-77
2023/08/07 03:44:57;;;;;;;12.40;3.40;;;;;;;;;;5033848;28;20041;-79
2023/08/07 03:47:23;;;;;;;13.73;3.65;;;;;;;;;;5033257;28;20028;-79
2023/08/07 03:49:48;;;;;;;9.57;3.72;;;;;;;;;;5032417;28;20026;-80
2023/08/07 03:52:14;;;;;;;7.75;2.97;;;;;;;;;;5013022;28;20022;-76
2023/08/07 03:54:39;;;;;;;9.77;5.18;;;;;;;;;;4996698;28;20034;-77
2023/08/07 03:57:05;;;;;;;11.80;3.10;;;;;;;;;;5013161;28;20054;-77
2023/08/07 03:59:33;;;;;;;10.48;3.88;;;;;;;;;;4996265;28;20393;-76
2023/08/07 04:01:58;;;;;;;6.65;3.17;;;;;;;;;;5022939;28;20052;-77
2023/08/07 04:04:23;;;;;;;11.80;3.85;;;;;;;;;;5033930;28;20503;-77
2023/08/07 04:06:49;;;;;;;10.25;3.20;;;;;;;;;;5033762;28;20029;-77
2023/08/07 04:09:16;;;;;;;16.08;3.85;;;;;;;;;;5032894;28;20054;-77
2023/08/07 04:11:41;;;;;;;15.85;3.83;;;;;;;;;;5015638;28;20024;-77
2023/08/07 04:14:10;;;;;;;8.25;3.75;;;;;;;;;;5032678;28;20025;-77
2023/08/07 04:16:36;;;;;;;11.55;4.00;;;;;;;;;;5016251;28;20449;-79
2023/08/07 04:19:02;;;;;;;18.30;4.63;;;;;;;;;;5039464;23;20045;-77
2023/08/07 04:21:27;;;;;;;12.25;5.40;;;;;;;;;;5032176;28;20025;-77
2023/08/07 04:23:52;;;;;;;22.75;5.50;;;;;;;;;;5032349;28;20018;-77
2023/08/07 04:26:18;;;;;;;15.65;4.22;;;;;;;;;;5034152;28;20052;-79
2023/08/07 04:28:43;;;;;;;17.40;3.88;;;;;;;;;;5047518;22;20030;-76
2023/08/07 04:31:11;;;;;;;13.20;3.47;;;;;;;;;;5031385;28;20507;-74
2023/08/07 04:33:37;;;;;;;20.35;4.35;;;;;;;;;;5032387;28;20025;-74
2023/08/07 04:36:02;;;;;;;17.77;4.10;;;;;;;;;;5019706;28;20033;-74
2023/08/07 04:38:27;;;;;;;13.35;5.43;;;;;;;;;;5011578;28;20021;-74
2023/08/07 04:40:53;;;;;;;13.68;3.83;;;;;;;;;;5014614;28;20079;-74
2023/08/07 04:43:21;;;;;;;16.30;4.10;;;;;;;;;;5011846;28;20431;-74
2023/08/07 04:45:49;;;;;;;14.07;4.65;;;;;;;;;;5016318;28;20087;-74
2023/08/07 04:48:15;;;;;;;10.88;3.60;;;;;;;;;;5032279;28;20044;-74
2023/08/07 04:50:41;;;;;;;13.10;3.50;;;;;;;;;;5028294;28;20109;-74
2023/08/07 04:53:06;;;;;;;13.98;4.13;;;;;;;;;;5016924;28;20514;-74
2023/08/07 04:55:32;;;;;;;17.85;3.83;;;;;;;;;;5015900;28;20018;-74
2023/08/07 04:57:57;;;;;;;11.80;4.30;;;;;;;;;;5036975;28;20109;-74
2023/08/07 05:00:23;;;;;;;11.48;4.05;;;;;;;;;;5031352;28;20109;-74
2023/08/07 05:02:49;;;;;;;20.88;4.38;;;;;;;;;;5010169;28;20033;-74
2023/08/07 05:05:15;;;;;;;14.75;3.97;;;;;;;;;;5021412;28;20190;-74
2023/08/07 05:07:40;;;;;;;14.82;4.10;;;;;;;;;;5024405;28;20025;-74
2023/08/07 05:10:06;;;;;;;12.90;4.20;;;;;;;;;;5035806;28;20467;-74
2023/08/07 05:12:32;;;;;;;15.20;4.18;;;;;;;;;;5034830;28;20033;-74
2023/08/07 05:14:57;;;;;;;10.63;3.88;;;;;;;;;;5034880;28;20111;-74
2023/08/07 05:17:25;;;;;;;16.20;5.05;;;;;;;;;;5036093;28;20028;-74
2023/08/07 05:19:50;;;;;;;13.07;5.03;;;;;;;;;;5034861;28;20102;-75
2023/08/07 05:22:15;;;;;;;19.02;4.78;;;;;;;;;;5034877;28;20056;-74
2023/08/07 05:24:41;;;;;;;13.23;4.07;;;;;;;;;;5035091;28;20075;-74
2023/08/07 05:27:08;;;;;;;15.57;5.72;;;;;;;;;;5036122;28;20471;-74
2023/08/07 05:29:34;;;;;;;11.15;4.40;;;;;;;;;;5034129;28;20033;-74
2023/08/07 05:31:59;;;;;;;13.68;4.13;;;;;;;;;;5034631;28;20025;-74
2023/08/07 05:34:24;;;;;;;11.93;4.68;;;;;;;;;;5034659;28;20037;-74
2023/08/07 05:36:50;;;;;;;9.80;4.20;;;;;;;;;;5034556;28;20032;-74
2023/08/07 05:39:15;;;;;;;13.07;3.95;;;;;;;;;;5034639;28;20083;-74
2023/08/07 05:41:40;;;;;;;17.38;4.30;;;;;;;;;;5035216;28;20029;-74
2023/08/07 05:44:06;;;;;;;17.77;5.72;;;;;;;;;;5035692;28;20025;-74
2023/08/07 05:46:31;;;;;;;13.90;3.95;;;;;;;;;;5034801;28;20017;-74
2023/08/07 05:48:56;;;;;;;31.85;4.10;;;;;;;;;;5035241;28;20461;-74
2023/08/07 05:51:24;;;;;;;16.08;4.35;;;;;;;;;;5035466;28;20061;-74
2023/08/07 05:53:49;;;;;;;13.45;3.92;;;;;;;;;;5035599;28;20475;-74
2023/08/07 05:56:15;;;;;;;14.52;4.43;;;;;;;;;;5034826;28;20037;-74
2023/08/07 05:58:40;;;;;;;19.48;4.28;;;;;;;;;;5035397;28;20067;-75
2023/08/07 06:01:05;;;;;;;28.27;6.43;;;;;;;;;;5033785;28;20517;-74
2023/08/07 06:03:31;;;;;;;17.92;3.88;;;;;;;;;;5034230;28;20430;-74
2023/08/07 06:05:57;;;;;;;13.75;4.90;;;;;;;;;;5034279;28;20029;-74
2023/08/07 06:08:22;;;;;;;18.70;3.97;;;;;;;;;;5034240;28;20116;-74
2023/08/07 06:10:47;;;;;;;15.13;5.38;;;;;;;;;;5033330;28;20021;-74
2023/08/07 06:13:13;;;;;;;10.38;3.50;;;;;;;;;;5035144;28;20028;-75
2023/08/07 06:15:38;;;;;;;20.52;5.15;;;;;;;;;;5034071;28;20424;-74
2023/08/07 06:18:03;;;;;;;19.00;4.60;;;;;;;;;;5033824;28;20029;-75
2023/08/07 06:20:28;;;;;;;13.77;4.32;;;;;;;;;;5034992;28;20017;-74
2023/08/07 06:22:54;;;;;;;20.42;4.45;;;;;;;;;;5034531;28;20383;-74
2023/08/07 06:25:21;;;;;;;17.08;4.55;;;;;;;;;;5035017;28;20120;-74
2023/08/07 06:27:47;;;;;;;20.05;4.53;;;;;;;;;;5033855;28;20549;-74
2023/08/07 06:30:13;;;;;;;12.13;4.35;;;;;;;;;;5034717;28;20037;-74
2023/08/07 06:32:39;;;;;;;15.68;4.47;;;;;;;;;;5033122;28;20026;-74
2023/08/07 06:35:05;;;;;;;18.75;4.28;;;;;;;;;;5033666;28;20141;-74
2023/08/07 06:37:30;;;;;;;19.92;4.80;;;;;;;;;;5033489;28;20025;-74
2023/08/07 06:39:55;;;;;;;13.85;4.60;;;;;;;;;;5034705;28;20025;-74
2023/08/07 06:42:21;;;;;;;10.75;4.20;;;;;;;;;;5033393;28;20033;-74
2023/08/07 06:44:47;;;;;;;21.60;5.68;;;;;;;;;;5034619;28;20029;-75
2023/08/07 06:47:12;;;;;;;13.70;4.72;;;;;;;;;;5033434;28;20025;-75
2023/08/07 06:49:37;;;;;;;39.20;11.80;;;;;;;;;;5022631;28;20025;-73
2023/08/07 06:52:03;;;;;;;16.08;6.00;;;;;;;;;;5029600;28;20026;-73
2023/08/07 06:54:28;;;;;;;13.00;5.45;;;;;;;;;;5014137;28;20129;-74
2023/08/07 06:56:54;;;;;;;13.48;4.75;;;;;;;;;;5014129;28;20080;-73
2023/08/07 06:59:19;;;;;;;23.63;6.05;;;;;;;;;;5014514;28;20080;-73
2023/08/07 07:01:44;;;;;;;15.63;5.53;;;;;;;;;;5014520;28;20178;-73
2023/08/07 07:04:10;;;;;;;14.38;4.53;;;;;;;;;;5013196;28;20065;-73
2023/08/07 07:06:37;;;;;;;15.77;4.68;;;;;;;;;;5012608;28;20037;-73
2023/08/07 07:09:02;;;;;;;24.40;4.38;;;;;;;;;;5014109;28;20124;-73
2023/08/07 07:11:28;;;;;;;23.73;4.53;;;;;;;;;;5013126;28;20053;-74
2023/08/07 07:13:53;;;;;;;26.17;6.22;;;;;;;;;;5014027;28;20022;-73
2023/08/07 07:16:20;;;;;;;44.28;8.95;;;;;;;;;;5018531;28;20095;-73
2023/08/07 07:18:45;;;;;;;21.15;5.20;;;;;;;;;;5032731;28;20438;-73
2023/08/07 07:21:11;;;;;;;15.85;4.78;;;;;;;;;;5033633;28;20025;-73
2023/08/07 07:23:36;;;;;;;11.32;3.92;;;;;;;;;;5032219;28;20030;-73
2023/08/07 07:26:01;;;;;;;12.70;3.90;;;;;;;;;;5033829;28;20391;-73
2023/08/07 07:28:27;;;;;;;16.58;5.32;;;;;;;;;;5031897;28;20119;-74
2023/08/07 07:30:52;;;;;;;16.85;4.38;;;;;;;;;;5030803;28;20101;-73
2023/08/07 07:33:18;;;;;;;20.35;4.30;;;;;;;;;;5032335;28;20021;-73
2023/08/07 07:35:43;;;;;;;15.45;4.25;;;;;;;;;;5021180;28;20457;-73
2023/08/07 07:38:10;;;;;;;15.65;3.97;;;;;;;;;;5012575;28;20026;-74
2023/08/07 07:40:35;;;;;;;16.33;4.90;;;;;;;;;;5029787;28;20032;-74
2023/08/07 07:43:00;;;;;;;12.25;4.25;;;;;;;;;;5031301;28;20029;-73
2023/08/07 07:45:26;;;;;;;15.38;4.03;;;;;;;;;;5031803;28;20391;-73
2023/08/07 07:47:51;;;;;;;20.55;7.00;;;;;;;;;;5033161;28;20498;-73
2023/08/07 07:50:16;;;;;;;14.15;3.90;;;;;;;;;;5030902;28;20109;-73
2023/08/07 07:52:43;;;;;;;17.77;4.80;;;;;;;;;;5033415;28;20091;-73
2023/08/07 07:55:09;;;;;;;14.82;4.25;;;;;;;;;;5032955;28;20029;-73
2023/08/07 07:57:34;;;;;;;19.77;4.38;;;;;;;;;;5017419;28;20022;-74
2023/08/07 08:00:00;;;;;;;20.83;4.57;;;;;;;;;;5012727;28;20400;-73
2023/08/07 08:02:26;;;;;;;12.88;4.03;;;;;;;;;;5013266;28;20038;-73
2023/08/07 08:04:52;;;;;;;18.73;4.38;;;;;;;;;;5012015;28;20048;-73
2023/08/07 08:07:17;;;;;;;21.45;5.03;;;;;;;;;;5019967;28;20025;-73
2023/08/07 08:09:42;;;;;;;21.45;4.70;;;;;;;;;;5032602;28;20502;-73
2023/08/07 08:12:08;;;;;;;16.17;4.80;;;;;;;;;;5032782;28;20025;-73
2023/08/07 08:14:33;;;;;;;28.27;4.82;;;;;;;;;;5031770;28;20044;-74
2023/08/07 08:16:59;;;;;;;12.98;4.10;;;;;;;;;;5032720;28;20075;-73
2023/08/07 08:19:24;;;;;;;12.25;4.50;;;;;;;;;;5030992;28;20464;-73
2023/08/07 08:21:50;;;;;;;21.20;4.78;;;;;;;;;;5032833;28;20147;-74
2023/08/07 08:24:16;;;;;;;12.15;5.32;;;;;;;;;;5032640;28;20079;-73
2023/08/07 08:26:41;;;;;;;16.20;4.70;;;;;;;;;;5032344;28;20101;-73
2023/08/07 08:29:07;;;;;;;23.30;4.47;;;;;;;;;;5030904;28;20391;-73
2023/08/07 08:31:36;;;;;;;17.83;5.38;;;;;;;;;;5031021;28;20112;-74
2023/08/07 08:34:01;;;;;;;24.15;4.47;;;;;;;;;;5031457;28;20022;-73
2023/08/07 08:36:26;;;;;;;17.15;4.68;;;;;;;;;;5032672;28;20034;-73
2023/08/07 08:38:52;;;;;;;11.82;3.38;;;;;;;;;;5032438;28;20029;-74
2023/08/07 08:41:17;;;;;;;20.80;6.13;;;;;;;;;;5032293;28;20029;-74
2023/08/07 08:43:45;;;;;;;13.50;3.83;;;;;;;;;;5031115;28;20030;-73
2023/08/07 08:46:11;;;;;;;21.88;4.32;;;;;;;;;;5031318;28;20026;-74
2023/08/07 08:48:38;;;;;;;11.27;3.40;;;;;;;;;;5031385;28;20029;-73
2023/08/07 08:51:04;;;;;;;19.40;4.50;;;;;;;;;;5031305;28;20053;-73
2023/08/07 08:53:30;;;;;;;17.40;4.55;;;;;;;;;;5032356;28;20045;-73
2023/08/07 08:55:56;;;;;;;11.48;4.10;;;;;;;;;;5031127;28;20499;-73
2023/08/07 08:58:23;;;;;;;15.27;4.40;;;;;;;;;;5032653;28;20088;-73
2023/08/07 09:00:48;;;;;;;13.02;4.93;;;;;;;;;;5031999;28;20092;-73
2023/08/07 09:03:13;;;;;;;16.58;3.88;;;;;;;;;;5030526;28;20456;-73
2023/08/07 09:05:41;;;;;;;21.63;4.20;;;;;;;;;;5032559;28;20055;-73
2023/08/07 09:08:08;;;;;;;11.65;3.72;;;;;;;;;;5031062;28;20055;-72
2023/08/07 09:10:34;;;;;;;15.43;4.20;;;;;;;;;;5030559;28;20048;-73
2023/08/07 09:13:05;;;;;;;17.55;4.25;;;;;;;;;;5030856;28;20024;-73
2023/08/07 09:15:31;;;;;;;17.15;4.95;;;;;;;;;;5030433;28;20025;-73
2023/08/07 09:17:58;;;;;;;13.00;3.53;;;;;;;;;;5013495;28;20452;-73
2023/08/07 09:20:24;;;;;;;23.02;5.32;;;;;;;;;;5030867;28;20041;-74
2023/08/07 09:22:50;;;;;;;9.80;3.65;;;;;;;;;;5032016;28;20025;-73
2023/08/07 09:25:26;;;;;;;18.55;5.05;;;;;;;;;;5031620;28;20030;-72
2023/08/07 09:27:51;;;;;;;9.27;3.08;;;;;;;;;;5030226;28;20033;-72
2023/08/07 09:30:19;;;;;;;10.02;2.25;;;;;;;;;;5031931;28;20422;-72
2023/08/07 09:32:47;;;;;;;11.57;3.22;;;;;;;;;;5022960;28;20033;-72
2023/08/07 09:35:13;;;;;;;15.90;3.80;;;;;;;;;;5010981;28;20026;-72
2023/08/07 09:37:38;;;;;;;13.80;3.20;;;;;;;;;;5012587;28;20022;-72
2023/08/07 09:40:04;;;;;;;11.73;4.05;;;;;;;;;;5015408;28;20148;-72
2023/08/07 09:42:33;;;;;;;15.32;3.65;;;;;;;;;;5014052;28;20477;-72
2023/08/07 09:45:00;;;;;;;17.20;3.45;;;;;;;;;;5014662;28;20026;-71
2023/08/07 09:47:25;;;;;;;15.57;4.43;;;;;;;;;;5014784;28;20105;-71
2023/08/07 09:49:54;;;;;;;17.30;4.53;;;;;;;;;;5017807;28;20568;-72
2023/08/07 09:52:19;;;;;;;14.25;3.03;;;;;;;;;;5029705;28;20369;-72
2023/08/07 09:54:44;;;;;;;15.10;3.92;;;;;;;;;;5015463;28;20083;-71
2023/08/07 09:57:10;;;;;;;16.85;4.63;;;;;;;;;;5017528;28;20024;-73
2023/08/07 09:59:35;;;;;;;12.38;3.08;;;;;;;;;;5019546;28;20390;-72
2023/08/07 10:02:02;;;;;;;16.02;3.95;;;;;;;;;;5034505;28;20044;-72
2023/08/07 10:04:28;;;;;;;15.05;3.40;;;;;;;;;;5033945;28;20434;-72
2023/08/07 10:06:53;;;;;;;21.30;5.28;;;;;;;;;;5033954;28;20025;-73
2023/08/07 10:09:19;;;;;;;13.05;3.85;;;;;;;;;;5035271;28;20112;-72
2023/08/07 10:11:45;;;;;;;18.33;5.22;;;;;;;;;;5033075;28;20035;-72
2023/08/07 10:14:11;;;;;;;15.35;3.42;;;;;;;;;;5033819;28;20021;-72
2023/08/07 10:16:39;;;;;;;16.90;4.20;;;;;;;;;;5017281;28;20509;-72
2023/08/07 10:19:08;;;;;;;13.40;3.90;;;;;;;;;;5033082;28;20041;-73
2023/08/07 10:21:38;;;;;;;13.05;3.65;;;;;;;;;;5033739;28;20018;-73
2023/08/07 10:24:05;;;;;;;15.23;4.43;;;;;;;;;;5034655;28;20029;-72
2023/08/07 10:26:33;;;;;;;15.57;3.85;;;;;;;;;;5033805;28;20025;-73
2023/08/07 10:28:58;;;;;;;16.85;3.88;;;;;;;;;;5032799;28;20439;-73
2023/08/07 10:31:24;;;;;;;14.20;3.80;;;;;;;;;;5069245;22;20077;-77
2023/08/07 10:33:49;;;;;;;13.35;3.70;;;;;;;;;;5014067;28;20034;-78
2023/08/07 10:36:16;;;;;;;26.23;5.93;;;;;;;;;;5014780;28;20061;-77
2023/08/07 10:38:42;;;;;;;17.98;4.70;;;;;;;;;;5014641;28;20022;-77
2023/08/07 10:41:09;;;;;;;12.63;3.53;;;;;;;;;;5020944;28;20387;-78
2023/08/07 10:43:44;;;;;;;15.38;3.63;;;;;;;;;;5033840;28;20021;-77
2023/08/07 10:46:11;;;;;;;14.88;3.92;;;;;;;;;;5016134;28;20033;-76
2023/08/07 10:48:45;;;;;;;19.45;5.35;;;;;;;;;;5013861;28;20033;-78
2023/08/07 10:51:14;;;;;;;16.10;4.28;;;;;;;;;;5037046;23;20041;-77
2023/08/07 10:53:43;;;;;;;21.10;4.35;;;;;;;;;;5033959;28;20060;-77
2023/08/07 10:56:11;;;;;;;24.75;5.00;;;;;;;;;;5047804;28;20021;-78
2023/08/07 10:58:37;;;;;;;18.75;4.45;;;;;;;;;;5037616;28;20167;-77
2023/08/07 11:01:18;;;;;;;9.90;3.45;;;;;;;;;;5036912;28;20031;-77
2023/08/07 11:03:43;;;;;;;15.35;3.97;;;;;;;;;;5053565;28;20534;-77
2023/08/07 11:06:10;;;;;;;12.63;4.20;;;;;;;;;;5053740;28;20036;-77
2023/08/07 11:08:37;;;;;;;11.05;3.38;;;;;;;;;;5053782;28;20485;-77
2023/08/07 11:11:06;;;;;;;17.08;4.60;;;;;;;;;;5054246;28;20025;-77
2023/08/07 11:13:33;;;;;;;21.20;4.40;;;;;;;;;;5038322;28;20078;-77
2023/08/07 11:15:59;;;;;;;15.50;3.75;;;;;;;;;;5053554;28;20025;-76
2023/08/07 11:18:25;;;;;;;17.13;4.50;;;;;;;;;;5053667;28;20025;-77
2023/08/07 11:20:50;;;;;;;10.93;3.70;;;;;;;;;;5053729;28;20027;-77
2023/08/07 11:23:15;;;;;;;12.70;4.15;;;;;;;;;;5053664;28;20020;-77
2023/08/07 11:25:41;;;;;;;17.67;3.65;;;;;;;;;;5037165;28;20056;-77
2023/08/07 11:28:08;;;;;;;15.32;3.90;;;;;;;;;;5053926;28;20021;-76
2023/08/07 11:30:35;;;;;;;11.52;4.03;;;;;;;;;;5054235;28;20020;-77
2023/08/07 11:33:00;;;;;;;14.25;3.85;;;;;;;;;;5053093;28;20116;-76
2023/08/07 11:35:25;;;;;;;12.38;3.65;;;;;;;;;;5053725;28;20029;-77
2023/08/07 11:37:53;;;;;;;19.95;3.47;;;;;;;;;;5054712;28;20505;-77
2023/08/07 11:40:19;;;;;;;16.63;3.63;;;;;;;;;;5054228;28;20029;-77
2023/08/07 11:42:44;;;;;;;16.67;3.95;;;;;;;;;;5053853;28;20021;-76
2023/08/07 11:45:10;;;;;;;14.07;3.85;;;;;;;;;;5052676;28;20035;-77
2023/08/07 11:47:35;;;;;;;12.40;3.05;;;;;;;;;;5054357;28;20024;-77
2023/08/07 11:50:01;;;;;;;7.03;2.65;;;;;;;;;;5036917;28;20119;-77
2023/08/07 11:52:27;;;;;;;12.10;3.63;;;;;;;;;;5036778;28;20021;-76
2023/08/07 11:54:52;;;;;;;11.02;3.30;;;;;;;;;;5052837;28;20040;-77
2023/08/07 11:57:20;;;;;;;13.48;3.17;;;;;;;;;;5054330;28;20037;-77
2023/08/07 11:59:54;;;;;;;13.15;2.88;;;;;;;;;;5053372;28;20398;-77
2023/08/07 12:02:24;;;;;;;13.02;3.55;;;;;;;;;;5036204;28;20021;-78
2023/08/07 12:04:49;;;;;;;11.40;3.22;;;;;;;;;;5053824;28;20052;-77
2023/08/07 12:07:19;;;;;;;8.45;3.70;;;;;;;;;;5055634;28;20483;-78
2023/08/07 12:09:44;;;;;;;6.28;2.28;;;;;;;;;;5053670;28;20486;-79
2023/08/07 12:12:11;;;;;;;10.07;3.90;;;;;;;;;;5038316;28;20029;-77
2023/08/07 12:14:36;;;;;;;10.05;2.70;;;;;;;;;;5054278;28;20422;-77
2023/08/07 12:17:02;;;;;;;12.00;3.53;;;;;;;;;;5053383;28;20036;-77
2023/08/07 12:19:38;;;;;;;12.63;3.83;;;;;;;;;;5054894;28;20079;-76
2023/08/07 12:22:06;;;;;;;13.07;4.25;;;;;;;;;;5052707;28;20029;-76
2023/08/07 12:24:31;;;;;;;7.82;4.05;;;;;;;;;;5054048;28;20024;-76
2023/08/07 12:26:57;;;;;;;11.70;5.05;;;;;;;;;;5055221;28;20028;-76
2023/08/07 12:29:23;;;;;;;18.77;4.82;;;;;;;;;;5055173;28;20128;-76
2023/08/07 12:31:48;;;;;;;14.80;3.72;;;;;;;;;;5054249;28;20399;-77
2023/08/07 12:34:14;;;;;;;18.05;4.40;;;;;;;;;;5052435;28;20021;-76
2023/08/07 12:36:39;;;;;;;15.35;4.25;;;;;;;;;;5038166;28;20017;-77
2023/08/07 12:39:06;;;;;;;21.65;4.68;;;;;;;;;;5037423;28;20457;-77
2023/08/07 12:41:31;;;;;;;20.88;4.32;;;;;;;;;;5054682;28;20104;-75
2023/08/07 12:43:57;;;;;;;10.82;3.08;;;;;;;;;;5052824;28;20048;-76
2023/08/07 12:46:22;;;;;;;17.00;4.15;;;;;;;;;;5035460;28;20037;-76
2023/08/07 12:48:47;;;;;;;12.70;4.00;;;;;;;;;;5053829;28;20124;-76
2023/08/07 12:51:12;;;;;;;17.52;4.35;;;;;;;;;;5043612;23;20069;-77
2023/08/07 12:53:38;;;;;;;16.70;3.65;;;;;;;;;;5031977;28;20442;-76
2023/08/07 12:56:05;;;;;;;21.25;4.25;;;;;;;;;;5015295;28;20029;-76
2023/08/07 12:58:30;;;;;;;17.95;4.00;;;;;;;;;;5031471;28;20029;-77
2023/08/07 13:00:56;;;;;;;15.50;3.55;;;;;;;;;;5031648;28;20120;-77
2023/08/07 13:03:26;;;;;;;12.55;4.55;;;;;;;;;;5031790;28;20061;-76
2023/08/07 13:05:52;;;;;;;12.70;4.10;;;;;;;;;;5031698;28;20484;-76
2023/08/07 13:08:17;;;;;;;11.98;3.15;;;;;;;;;;5031687;28;20074;-77
2023/08/07 13:10:42;;;;;;;15.98;3.97;;;;;;;;;;5032308;28;20021;-77
2023/08/07 13:13:08;;;;;;;11.27;3.47;;;;;;;;;;5034327;28;20063;-77
2023/08/07 13:15:33;;;;;;;14.38;3.97;;;;;;;;;;5035646;28;20116;-77
2023/08/07 13:18:00;;;;;;;14.43;3.88;;;;;;;;;;5035406;28;20032;-77
2023/08/07 13:20:27;;;;;;;16.90;3.22;;;;;;;;;;5036883;28;20029;-77
2023/08/07 13:22:52;;;;;;;13.50;3.72;;;;;;;;;;5034754;28;20061;-78
2023/08/07 13:25:17;;;;;;;11.98;3.50;;;;;;;;;;5019205;28;20061;-77
2023/08/07 13:27:43;;;;;;;23.08;3.88;;;;;;;;;;5035358;28;20085;-77
2023/08/07 13:30:09;;;;;;;8.65;3.40;;;;;;;;;;5034983;28;20022;-77
2023/08/07 13:32:34;;;;;;;13.07;3.70;;;;;;;;;;5035253;28;20128;-77
2023/08/07 13:35:00;;;;;;;13.52;3.28;;;;;;;;;;5035328;28;20442;-77
2023/08/07 13:37:25;;;;;;;16.58;3.55;;;;;;;;;;5035198;28;20052;-77
2023/08/07 13:39:52;;;;;;;13.07;4.20;;;;;;;;;;5036167;28;20025;-76
2023/08/07 13:42:23;;;;;;;18.48;4.07;;;;;;;;;;5034337;28;20025;-77
2023/08/07 13:44:49;;;;;;;9.65;2.80;;;;;;;;;;5018625;28;20399;-77
2023/08/07 13:47:14;;;;;;;11.70;3.60;;;;;;;;;;5034887;28;20040;-76
2023/08/07 13:49:39;;;;;;;15.57;3.25;;;;;;;;;;5035290;28;20384;-77
2023/08/07 13:52:05;;;;;;;14.07;3.95;;;;;;;;;;5034405;28;20022;-77
2023/08/07 13:54:30;;;;;;;15.45;5.13;;;;;;;;;;5034990;28;20014;-77
2023/08/07 13:56:56;;;;;;;14.52;3.92;;;;;;;;;;5035850;28;20113;-77
2023/08/07 13:59:21;;;;;;;9.57;2.90;;;;;;;;;;5034156;28;20399;-76
2023/08/07 14:01:46;;;;;;;13.93;3.38;;;;;;;;;;5034729;28;20027;-76
2023/08/07 14:04:13;;;;;;;10.30;4.05;;;;;;;;;;5035681;28;20104;-76
2023/08/07 14:06:39;;;;;;;9.73;2.53;;;;;;;;;;5034994;28;20113;-76
2023/08/07 14:09:04;;;;;;;9.18;2.92;;;;;;;;;;5034960;28;20466;-77
2023/08/07 14:11:31;;;;;;;10.23;3.00;;;;;;;;;;5018527;28;20027;-77
2023/08/07 14:13:59;;;;;;;11.25;3.15;;;;;;;;;;5035144;28;20105;-77
2023/08/07 14:16:25;;;;;;;13.57;3.03;;;;;;;;;;5030788;28;20034;-77
2023/08/07 14:18:50;;;;;;;13.27;2.78;;;;;;;;;;5027669;28;20034;-78
2023/08/07 14:21:19;;;;;;;14.70;4.45;;;;;;;;;;5011154;28;20037;-77
2023/08/07 14:23:49;;;;;;;11.57;2.95;;;;;;;;;;5026360;28;20471;-76
2023/08/07 14:26:15;;;;;;;14.82;3.13;;;;;;;;;;5029758;28;20466;-77